JST298 NZQN-NZAA
Flight info
| Callsign | JST298 |
|---|---|
| Flight time | N/A |
| Altitude | 37000 |
| Route | SAVLA Y569 LOVTA Y655 POKOM Q277 DAVEE |
| Aircraft | A320/M-SDE3FGHIRWYZ/LB1 |
Departure
| Time | 2026-04-27 05:38 |
|---|---|
| Airport | Queenstown Airport (NZQN) |
Arrival
| Time | N/A |
|---|---|
| Airport | Auckland International Airport (NZAA) |
| Time | Latitude | Longitude | Altitude | Speed | Heading |
|---|---|---|---|---|---|
| 2026-04-27 05:04 | -45.02146 | 168.74060 | 1164 ft | 0 kts | 206° |
| 2026-04-27 05:29 | -45.02133 | 168.74068 | 1163 ft | 4 kts | 217° |
| 2026-04-27 05:29 | -45.02117 | 168.74096 | 1161 ft | 4 kts | 252° |
| 2026-04-27 05:29 | -45.02114 | 168.74132 | 1161 ft | 4 kts | 290° |
| 2026-04-27 05:30 | -45.02116 | 168.74140 | 1161 ft | 0 kts | 296° |
| 2026-04-27 05:33 | -45.02116 | 168.74139 | 1161 ft | 1 kts | 296° |
| 2026-04-27 05:33 | -45.02082 | 168.74065 | 1164 ft | 14 kts | 323° |
| 2026-04-27 05:34 | -45.01988 | 168.74089 | 1165 ft | 15 kts | 23° |
| 2026-04-27 05:34 | -45.01910 | 168.74164 | 1164 ft | 14 kts | 66° |
| 2026-04-27 05:34 | -45.01886 | 168.74296 | 1169 ft | 14 kts | 77° |
| 2026-04-27 05:34 | -45.01864 | 168.74436 | 1168 ft | 16 kts | 77° |
| 2026-04-27 05:35 | -45.01838 | 168.74597 | 1164 ft | 18 kts | 76° |
| 2026-04-27 05:35 | -45.01811 | 168.74772 | 1165 ft | 19 kts | 78° |
| 2026-04-27 05:35 | -45.01782 | 168.74966 | 1164 ft | 21 kts | 78° |
| 2026-04-27 05:35 | -45.01751 | 168.75171 | 1165 ft | 22 kts | 77° |
| 2026-04-27 05:36 | -45.01712 | 168.75391 | 1164 ft | 24 kts | 76° |
| 2026-04-27 05:36 | -45.01680 | 168.75620 | 1165 ft | 24 kts | 78° |
| 2026-04-27 05:36 | -45.01659 | 168.75740 | 1168 ft | 10 kts | 71° |
| 2026-04-27 05:36 | -45.01648 | 168.75820 | 1165 ft | 1 kts | 157° |
| 2026-04-27 05:37 | -45.01651 | 168.75814 | 1165 ft | 1 kts | 216° |
| 2026-04-27 05:37 | -45.01662 | 168.75732 | 1168 ft | 31 kts | 258° |
| 2026-04-27 05:37 | -45.01768 | 168.75048 | 1163 ft | 110 kts | 257° |
| 2026-04-27 05:37 | -45.01971 | 168.73713 | 1323 ft | 155 kts | 258° |
| 2026-04-27 05:38 | -45.02204 | 168.72210 | 2115 ft | 159 kts | 258° |
| 2026-04-27 05:38 | -45.02518 | 168.70704 | 2763 ft | 161 kts | 245° |
| 2026-04-27 05:38 | -45.03123 | 168.69388 | 3296 ft | 163 kts | 230° |
| 2026-04-27 05:38 | -45.04010 | 168.68354 | 3825 ft | 168 kts | 211° |
| 2026-04-27 05:39 | -45.05106 | 168.67741 | 4358 ft | 172 kts | 194° |
| 2026-04-27 05:39 | -45.06313 | 168.67641 | 4900 ft | 176 kts | 176° |
| 2026-04-27 05:39 | -45.07506 | 168.68110 | 5418 ft | 181 kts | 156° |
| 2026-04-27 05:39 | -45.08535 | 168.69119 | 5933 ft | 186 kts | 137° |
| 2026-04-27 05:40 | -45.09336 | 168.70615 | 6431 ft | 190 kts | 128° |
| 2026-04-27 05:40 | -45.10180 | 168.72020 | 6911 ft | 190 kts | 141° |
| 2026-04-27 05:40 | -45.11216 | 168.73171 | 7380 ft | 188 kts | 154° |
| 2026-04-27 05:40 | -45.12379 | 168.73988 | 7884 ft | 184 kts | 167° |
| 2026-04-27 05:41 | -45.13626 | 168.74465 | 8223 ft | 192 kts | 179° |
| 2026-04-27 05:41 | -45.15021 | 168.74565 | 8394 ft | 209 kts | 190° |
| 2026-04-27 05:41 | -45.16525 | 168.74394 | 8562 ft | 229 kts | 190° |
| 2026-04-27 05:41 | -45.18201 | 168.74217 | 8780 ft | 253 kts | 189° |
| 2026-04-27 05:42 | -45.20030 | 168.74034 | 9186 ft | 272 kts | 189° |
| 2026-04-27 05:42 | -45.23734 | 168.72733 | 10605 ft | 274 kts | 212° |
| 2026-04-27 05:42 | -45.25347 | 168.71156 | 10795 ft | 291 kts | 226° |
| 2026-04-27 05:43 | -45.26678 | 168.68913 | 11026 ft | 303 kts | 240° |
| 2026-04-27 05:43 | -45.27564 | 168.66177 | 11633 ft | 307 kts | 253° |
| 2026-04-27 05:43 | -45.27933 | 168.63171 | 12352 ft | 312 kts | 266° |
| 2026-04-27 05:43 | -45.27732 | 168.60135 | 13041 ft | 317 kts | 281° |
| 2026-04-27 05:44 | -45.26933 | 168.57183 | 13696 ft | 325 kts | 296° |
| 2026-04-27 05:44 | -45.25539 | 168.54594 | 14310 ft | 336 kts | 311° |
| 2026-04-27 05:44 | -45.23616 | 168.52626 | 14897 ft | 348 kts | 328° |
| 2026-04-27 05:44 | -45.21298 | 168.51475 | 15456 ft | 360 kts | 344° |
| 2026-04-27 05:45 | -45.18758 | 168.51319 | 16027 ft | 374 kts | 1° |
| 2026-04-27 05:45 | -45.16240 | 168.52283 | 16573 ft | 388 kts | 20° |
| 2026-04-27 05:45 | -45.13951 | 168.54405 | 17104 ft | 400 kts | 39° |
| 2026-04-27 05:45 | -45.11938 | 168.57178 | 17677 ft | 404 kts | 41° |
| 2026-04-27 05:46 | -45.09925 | 168.59983 | 18201 ft | 408 kts | 41° |
| 2026-04-27 05:46 | -45.07885 | 168.62814 | 18687 ft | 412 kts | 40° |
| 2026-04-27 05:46 | -45.05852 | 168.65625 | 19162 ft | 415 kts | 40° |
| 2026-04-27 05:46 | -45.03685 | 168.68332 | 19652 ft | 415 kts | 33° |
| 2026-04-27 05:47 | -45.01384 | 168.70818 | 20144 ft | 418 kts | 33° |
| 2026-04-27 05:47 | -44.99063 | 168.73327 | 20648 ft | 421 kts | 32° |
| 2026-04-27 05:47 | -44.96733 | 168.75838 | 21120 ft | 423 kts | 32° |
| 2026-04-27 05:47 | -44.94348 | 168.78328 | 21589 ft | 425 kts | 31° |
| 2026-04-27 05:48 | -44.91942 | 168.80775 | 22051 ft | 428 kts | 30° |
| 2026-04-27 05:48 | -44.89504 | 168.83218 | 22506 ft | 431 kts | 30° |
| 2026-04-27 05:48 | -44.87047 | 168.85670 | 22979 ft | 433 kts | 30° |
| 2026-04-27 05:48 | -44.84579 | 168.88140 | 23437 ft | 436 kts | 30° |
| 2026-04-27 05:49 | -44.82130 | 168.90600 | 23856 ft | 439 kts | 31° |
| 2026-04-27 05:49 | -44.79639 | 168.93115 | 24259 ft | 441 kts | 31° |
| 2026-04-27 05:49 | -44.77135 | 168.95650 | 24653 ft | 443 kts | 31° |
| 2026-04-27 05:49 | -44.74628 | 168.98189 | 25054 ft | 445 kts | 31° |
| 2026-04-27 05:50 | -44.72110 | 169.00736 | 25447 ft | 446 kts | 31° |
| 2026-04-27 05:50 | -44.69609 | 169.03257 | 25829 ft | 448 kts | 31° |
| 2026-04-27 05:50 | -44.67068 | 169.05811 | 26223 ft | 450 kts | 31° |
| 2026-04-27 05:50 | -44.64514 | 169.08372 | 26604 ft | 451 kts | 31° |
| 2026-04-27 05:51 | -44.61942 | 169.10953 | 26988 ft | 453 kts | 31° |
| 2026-04-27 05:51 | -44.59369 | 169.13534 | 27328 ft | 455 kts | 31° |
| 2026-04-27 05:51 | -44.56817 | 169.16091 | 27712 ft | 457 kts | 31° |
| 2026-04-27 05:51 | -44.54223 | 169.18687 | 28088 ft | 458 kts | 31° |
| 2026-04-27 05:52 | -44.51610 | 169.21293 | 28448 ft | 460 kts | 31° |
| 2026-04-27 05:52 | -44.49000 | 169.23893 | 28821 ft | 462 kts | 31° |
| 2026-04-27 05:52 | -44.46364 | 169.26521 | 29194 ft | 464 kts | 31° |
| 2026-04-27 05:52 | -44.43729 | 169.29144 | 29547 ft | 466 kts | 31° |
| 2026-04-27 05:53 | -44.41078 | 169.31778 | 29908 ft | 468 kts | 31° |
| 2026-04-27 05:53 | -44.38420 | 169.34422 | 30266 ft | 470 kts | 31° |
| 2026-04-27 05:53 | -44.35757 | 169.37074 | 30622 ft | 469 kts | 31° |
| 2026-04-27 05:53 | -44.33098 | 169.39722 | 31051 ft | 468 kts | 31° |
| 2026-04-27 05:54 | -44.30442 | 169.42356 | 31447 ft | 466 kts | 31° |
| 2026-04-27 05:54 | -44.27831 | 169.44936 | 31850 ft | 465 kts | 31° |
| 2026-04-27 05:54 | -44.25186 | 169.47545 | 32273 ft | 464 kts | 31° |
| 2026-04-27 05:54 | -44.22546 | 169.50147 | 32715 ft | 463 kts | 31° |
| 2026-04-27 05:55 | -44.19921 | 169.52734 | 33155 ft | 462 kts | 31° |